createdAt,value
2019-05-12T00:00:21.549Z,19.27
2019-05-12T00:02:51.654Z,17.75
2019-05-12T00:05:21.672Z,17.90
2019-05-12T00:07:51.660Z,17.10
2019-05-12T00:10:21.723Z,17.55
2019-05-12T00:12:51.759Z,18.42
2019-05-12T00:15:21.719Z,17.30
2019-05-12T00:17:51.770Z,16.73
2019-05-12T00:20:21.823Z,16.37
2019-05-12T00:22:53.414Z,22.25
2019-05-12T00:25:23.471Z,14.20
2019-05-12T00:27:54.241Z,15.90
2019-05-12T00:30:34.761Z,18.35
2019-05-12T00:33:05.796Z,15.80
2019-05-12T00:35:37.882Z,13.03
2019-05-12T00:38:09.080Z,16.85
2019-05-12T00:40:39.762Z,18.32
2019-05-12T00:43:10.354Z,15.45
2019-05-12T00:45:40.447Z,17.52
2019-05-12T00:48:10.405Z,16.42
2019-05-12T00:50:40.439Z,17.02
2019-05-12T00:53:10.411Z,14.90
2019-05-12T00:55:40.429Z,14.07
2019-05-12T00:58:10.426Z,14.85
2019-05-12T01:00:41.420Z,16.50
2019-05-12T01:03:12.682Z,16.73
2019-05-12T01:05:42.673Z,17.67
2019-05-12T01:08:12.799Z,19.48
2019-05-12T01:10:42.889Z,18.35
2019-05-12T01:13:12.927Z,16.32
2019-05-12T01:15:42.944Z,16.77
2019-05-12T01:18:12.902Z,15.70
2019-05-12T01:20:42.847Z,15.38
2019-05-12T01:23:12.829Z,16.17
2019-05-12T01:25:42.803Z,17.00
2019-05-12T01:28:13.546Z,16.93
2019-05-12T01:30:43.608Z,16.60
2019-05-12T01:33:13.709Z,17.35
2019-05-12T01:35:43.703Z,17.37
2019-05-12T01:38:13.673Z,17.98
2019-05-12T01:40:43.761Z,17.75
2019-05-12T01:43:13.924Z,17.60
2019-05-12T01:45:43.942Z,16.48
2019-05-12T01:48:13.881Z,20.35
2019-05-12T01:50:43.839Z,18.50
2019-05-12T01:53:13.844Z,16.90
2019-05-12T01:55:43.902Z,16.93
2019-05-12T01:58:14.008Z,17.27
2019-05-12T02:00:44.418Z,18.85
2019-05-12T02:03:14.434Z,17.32
2019-05-12T02:05:48.401Z,17.73
2019-05-12T02:08:19.379Z,18.65
2019-05-12T02:10:51.085Z,20.00
2019-05-12T02:13:21.268Z,18.90
2019-05-12T02:15:51.223Z,19.35
2019-05-12T02:18:21.187Z,18.77
2019-05-12T02:20:51.475Z,16.97
2019-05-12T02:23:21.456Z,20.60
2019-05-12T02:25:51.600Z,15.35
2019-05-12T02:28:22.435Z,17.00
2019-05-12T02:30:52.392Z,17.45
2019-05-12T02:33:24.480Z,16.70
2019-05-12T02:35:54.808Z,18.42
2019-05-12T02:38:25.255Z,19.67
2019-05-12T02:40:55.582Z,19.85
2019-05-12T02:43:25.641Z,20.30
2019-05-12T02:45:55.713Z,18.17
2019-05-12T02:48:25.724Z,18.70
2019-05-12T02:50:56.064Z,19.52
2019-05-12T02:53:26.111Z,22.58
2019-05-12T02:55:56.679Z,19.10
2019-05-12T02:58:28.668Z,19.30
2019-05-12T03:00:58.944Z,16.93
2019-05-12T03:03:31.533Z,18.27
2019-05-12T03:06:05.484Z,19.20
2019-05-12T03:08:36.266Z,20.48
2019-05-12T03:11:06.729Z,17.07
2019-05-12T03:13:36.672Z,19.57
2019-05-12T03:16:06.676Z,16.62
2019-05-12T03:18:36.695Z,19.52
2019-05-12T03:21:06.679Z,19.90
2019-05-12T03:23:36.711Z,20.40
2019-05-12T03:26:06.765Z,20.95
2019-05-12T03:28:37.671Z,20.77
2019-05-12T03:31:08.608Z,19.80
2019-05-12T03:33:43.453Z,18.65
2019-05-12T03:36:10.750Z,18.20
2019-05-12T03:38:40.696Z,18.37
2019-05-12T03:41:10.659Z,22.15
2019-05-12T03:43:40.818Z,19.07
2019-05-12T03:46:10.845Z,18.20
2019-05-12T03:48:40.945Z,22.15
2019-05-12T03:51:10.978Z,19.25
2019-05-12T03:53:40.937Z,19.15
2019-05-12T03:56:10.947Z,22.58
2019-05-12T03:58:41.179Z,21.80
2019-05-12T04:01:11.196Z,20.75
2019-05-12T04:03:41.178Z,20.55
2019-05-12T04:06:11.229Z,20.02
2019-05-12T04:08:41.349Z,17.52
2019-05-12T04:11:14.307Z,17.50
2019-05-12T04:13:45.253Z,18.57
2019-05-12T04:16:16.339Z,17.35
2019-05-12T04:18:46.350Z,23.27
2019-05-12T04:21:16.312Z,20.40
2019-05-12T04:23:46.320Z,17.82
2019-05-12T04:26:17.392Z,22.70
2019-05-12T04:28:48.298Z,18.42
2019-05-12T04:31:18.405Z,19.42
2019-05-12T04:33:48.472Z,18.70
2019-05-12T04:36:18.434Z,21.20
2019-05-12T04:38:48.437Z,21.02
2019-05-12T04:41:19.963Z,19.20
2019-05-12T04:43:50.241Z,20.02
2019-05-12T04:46:20.258Z,21.93
2019-05-12T04:48:50.334Z,20.20
2019-05-12T04:51:20.417Z,21.30
2019-05-12T04:53:50.426Z,21.80
2019-05-12T04:56:20.851Z,18.40
2019-05-12T04:58:54.308Z,20.45
2019-05-12T05:01:25.431Z,19.10
2019-05-12T05:03:54.706Z,23.15
2019-05-12T05:06:25.563Z,23.22
2019-05-12T05:08:55.731Z,22.20
2019-05-12T05:11:25.742Z,22.20
2019-05-12T05:13:55.798Z,19.42
2019-05-12T05:16:25.831Z,22.30
2019-05-12T05:18:55.798Z,23.60
2019-05-12T05:21:25.776Z,21.48
2019-05-12T05:23:55.728Z,21.17
2019-05-12T05:26:28.267Z,20.48
2019-05-12T05:28:58.187Z,17.80
2019-05-12T05:31:28.265Z,23.07
2019-05-12T05:33:58.220Z,20.40
2019-05-12T05:36:28.157Z,20.90
2019-05-12T05:39:01.772Z,20.55
2019-05-12T05:41:29.756Z,15.93
2019-05-12T05:43:59.821Z,17.42
2019-05-12T05:46:29.751Z,16.20
2019-05-12T05:48:59.848Z,19.37
2019-05-12T05:51:30.050Z,21.50
2019-05-12T05:54:00.112Z,19.55
2019-05-12T05:56:39.673Z,22.37
2019-05-12T05:59:03.901Z,26.48
2019-05-12T06:01:34.752Z,23.55
2019-05-12T06:04:08.656Z,25.17
2019-05-12T06:06:36.572Z,21.93
2019-05-12T06:09:07.136Z,30.20
2019-05-12T06:11:37.172Z,24.25
2019-05-12T06:14:11.320Z,25.05
2019-05-12T06:16:38.933Z,25.95
2019-05-12T06:19:08.966Z,20.48
2019-05-12T06:21:39.084Z,23.55
2019-05-12T06:24:15.638Z,27.73
2019-05-12T06:26:54.627Z,19.92
2019-05-12T06:29:20.222Z,20.52
2019-05-12T06:31:45.091Z,20.17
2019-05-12T06:34:20.633Z,19.70
2019-05-12T06:36:46.761Z,31.57
2019-05-12T06:39:20.513Z,20.30
2019-05-12T06:41:48.430Z,16.55
2019-05-12T06:44:19.539Z,17.40
2019-05-12T06:46:53.440Z,16.57
2019-05-12T06:49:21.398Z,15.48
2019-05-12T06:51:53.717Z,16.52
2019-05-12T06:54:24.751Z,15.98
2019-05-12T06:57:10.262Z,14.23
2019-05-12T06:59:26.789Z,13.08
2019-05-12T07:02:00.441Z,12.82
2019-05-12T07:04:28.681Z,15.65
2019-05-12T07:07:00.666Z,13.85
2019-05-12T07:09:32.619Z,15.95
2019-05-12T07:12:06.251Z,12.90
2019-05-12T07:14:34.526Z,11.08
2019-05-12T07:17:23.794Z,13.55
2019-05-12T07:19:56.946Z,12.78
2019-05-12T07:22:25.855Z,15.18
2019-05-12T07:24:56.024Z,11.15
2019-05-12T07:27:36.008Z,12.13
2019-05-12T07:29:57.753Z,10.75
2019-05-12T07:32:29.160Z,11.40
2019-05-12T07:34:59.215Z,13.48
2019-05-12T07:37:31.203Z,10.80
2019-05-12T07:40:04.643Z,13.95
2019-05-12T07:42:39.393Z,11.90
2019-05-12T07:45:11.282Z,10.35
2019-05-12T07:47:39.475Z,11.50
2019-05-12T07:50:14.880Z,11.03
2019-05-12T07:52:44.013Z,11.80
2019-05-12T07:55:14.797Z,12.85
2019-05-12T07:57:52.932Z,13.45
2019-05-12T08:00:21.234Z,12.07
2019-05-12T08:02:48.515Z,12.45
2019-05-12T08:05:21.130Z,11.33
2019-05-12T08:07:50.588Z,11.45
2019-05-12T08:10:20.631Z,10.82
2019-05-12T08:12:51.075Z,10.18
2019-05-12T08:15:24.504Z,9.40
2019-05-12T08:17:57.780Z,9.58
2019-05-12T08:20:25.558Z,10.43
2019-05-12T08:22:59.701Z,9.95
2019-05-12T08:25:28.807Z,13.75
2019-05-12T08:28:11.123Z,10.05
2019-05-12T08:30:33.597Z,9.70
2019-05-12T08:33:09.583Z,7.85
2019-05-12T08:35:38.271Z,8.50
2019-05-12T08:38:06.797Z,8.20
2019-05-12T08:40:39.836Z,8.60
2019-05-12T08:43:10.541Z,9.95
2019-05-12T08:45:39.182Z,8.80
2019-05-12T08:48:16.189Z,10.10
2019-05-12T08:50:42.830Z,10.60
2019-05-12T08:53:20.480Z,10.43
2019-05-12T08:55:44.089Z,11.88
2019-05-12T08:58:29.874Z,14.15
2019-05-12T09:00:50.166Z,8.70
2019-05-12T09:03:20.382Z,8.20
2019-05-12T09:05:49.546Z,11.03
2019-05-12T09:08:20.744Z,11.88
2019-05-12T09:10:52.293Z,11.15
2019-05-12T09:13:23.422Z,10.72
2019-05-12T09:15:54.182Z,17.07
2019-05-12T09:18:33.610Z,15.72
2019-05-12T09:20:56.029Z,15.83
2019-05-12T09:23:26.051Z,16.57
2019-05-12T09:25:57.412Z,14.75
2019-05-12T09:28:27.599Z,18.15
2019-05-12T09:30:57.636Z,19.77
2019-05-12T09:33:31.874Z,12.95
2019-05-12T09:35:59.146Z,12.00
2019-05-12T09:38:29.144Z,12.10
2019-05-12T09:41:01.204Z,13.22
2019-05-12T09:43:34.228Z,11.33
2019-05-12T09:46:04.163Z,22.40
2019-05-12T09:48:33.768Z,20.07
2019-05-12T09:51:05.106Z,26.10
2019-05-12T09:53:35.093Z,13.60
2019-05-12T09:56:04.683Z,10.40
2019-05-12T09:58:34.263Z,12.37
2019-05-12T10:01:03.818Z,13.15
2019-05-12T10:03:38.814Z,8.03
2019-05-12T10:06:04.899Z,17.10
2019-05-12T10:08:35.694Z,10.68
2019-05-12T10:11:10.167Z,9.65
2019-05-12T10:13:36.951Z,6.47
2019-05-12T10:16:08.788Z,5.20
2019-05-12T10:18:43.073Z,8.03
2019-05-12T10:21:10.200Z,4.90
2019-05-12T10:23:40.389Z,7.30
2019-05-12T10:26:11.757Z,5.80
2019-05-12T10:28:45.355Z,4.57
2019-05-12T10:31:13.817Z,4.47
2019-05-12T10:33:43.391Z,6.70
2019-05-12T10:36:12.619Z,7.90
2019-05-12T10:38:43.398Z,6.43
2019-05-12T10:41:13.497Z,5.80
2019-05-12T10:43:43.414Z,7.47
2019-05-12T10:46:13.288Z,6.10
2019-05-12T10:48:44.305Z,8.10
2019-05-12T10:51:14.030Z,5.90
2019-05-12T10:53:48.737Z,6.30
2019-05-12T10:56:14.677Z,6.73
2019-05-12T10:58:44.288Z,7.37
2019-05-12T11:01:14.891Z,9.30
2019-05-12T11:03:50.889Z,14.97
2019-05-12T11:06:15.733Z,12.17
2019-05-12T11:08:47.379Z,12.83
2019-05-12T11:11:16.730Z,11.87
2019-05-12T11:13:49.904Z,9.97
2019-05-12T11:16:22.848Z,11.37
2019-05-12T11:18:48.665Z,11.07
2019-05-12T11:21:18.290Z,8.87
2019-05-12T11:23:48.011Z,10.63
2019-05-12T11:26:17.831Z,7.07
2019-05-12T11:28:47.643Z,8.30
2019-05-12T11:31:17.412Z,6.73
2019-05-12T11:33:47.394Z,7.47
2019-05-12T11:36:16.687Z,7.40
2019-05-12T11:38:46.242Z,7.97
2019-05-12T11:41:20.047Z,7.93
2019-05-12T11:43:47.231Z,5.80
2019-05-12T11:46:17.007Z,7.13
2019-05-12T11:48:50.294Z,7.13
2019-05-12T11:51:20.816Z,8.27
2019-05-12T11:53:48.603Z,8.47
2019-05-12T11:56:17.883Z,9.10
2019-05-12T11:58:51.484Z,19.50
2019-05-12T12:01:20.499Z,23.77
2019-05-12T12:03:50.436Z,23.50
2019-05-12T12:06:20.521Z,23.15
2019-05-12T12:08:50.216Z,41.47
2019-05-12T12:11:24.801Z,41.23
2019-05-12T12:13:53.494Z,42.58
2019-05-12T12:16:23.768Z,45.47
2019-05-12T12:19:02.303Z,45.00
2019-05-12T12:21:25.161Z,47.88
2019-05-12T12:23:55.032Z,45.80
2019-05-12T12:26:30.086Z,48.48
2019-05-12T12:28:57.266Z,51.93
2019-05-12T12:31:29.708Z,51.57
2019-05-12T12:33:59.896Z,49.63
2019-05-12T12:36:29.824Z,48.98
2019-05-12T12:38:59.842Z,49.70
2019-05-12T12:41:31.426Z,50.85
2019-05-12T12:44:01.521Z,49.75
2019-05-12T12:46:33.682Z,51.25
2019-05-12T12:49:06.437Z,50.23
2019-05-12T12:51:34.630Z,47.98
2019-05-12T12:54:04.658Z,51.48
2019-05-12T12:56:34.504Z,48.30
2019-05-12T12:59:10.347Z,51.05
2019-05-12T13:01:36.015Z,50.98
2019-05-12T13:04:06.539Z,46.45
2019-05-12T13:06:36.228Z,45.60
2019-05-12T13:09:16.355Z,45.98
2019-05-12T13:11:38.143Z,40.40
2019-05-12T13:14:07.999Z,38.08
2019-05-12T13:16:37.823Z,37.67
2019-05-12T13:19:12.487Z,35.25
2019-05-12T13:21:38.922Z,36.20
2019-05-12T13:24:08.927Z,34.53
2019-05-12T13:26:38.591Z,35.90
2019-05-12T13:29:08.534Z,33.18
2019-05-12T13:31:46.410Z,33.92
2019-05-12T13:34:14.421Z,29.45
2019-05-12T13:36:44.268Z,36.25
2019-05-12T13:39:16.410Z,39.92
2019-05-12T13:41:50.315Z,42.23
2019-05-12T13:44:17.779Z,43.60
2019-05-12T13:46:48.904Z,40.67
2019-05-12T13:49:19.411Z,37.98
2019-05-12T13:51:50.419Z,43.35
2019-05-12T13:54:26.000Z,46.98
2019-05-12T13:56:53.482Z,29.85
2019-05-12T13:59:25.538Z,37.67
2019-05-12T14:01:54.941Z,34.20
2019-05-12T14:04:27.778Z,35.05
2019-05-12T14:06:56.136Z,29.95
2019-05-12T14:09:26.687Z,34.27
2019-05-12T14:11:56.677Z,26.65
2019-05-12T14:14:26.407Z,35.60
2019-05-12T14:16:59.301Z,36.48
2019-05-12T14:19:30.272Z,38.17
2019-05-12T14:21:58.839Z,31.50
2019-05-12T14:24:33.147Z,40.38
2019-05-12T14:27:00.070Z,39.88
2019-05-12T14:29:30.782Z,40.65
2019-05-12T14:32:03.163Z,46.23
2019-05-12T14:34:34.006Z,39.60
2019-05-12T14:37:10.245Z,41.80
2019-05-12T14:39:40.066Z,45.03
2019-05-12T14:42:08.375Z,41.95
2019-05-12T14:44:44.852Z,46.15
2019-05-12T14:47:10.071Z,46.08
2019-05-12T14:49:40.104Z,36.98
2019-05-12T14:52:10.149Z,57.33
2019-05-12T14:54:40.675Z,55.40
2019-05-12T14:57:10.837Z,57.58
2019-05-12T14:59:41.190Z,51.40
2019-05-12T15:02:13.466Z,48.30
2019-05-12T15:04:43.693Z,50.30
2019-05-12T15:07:15.326Z,47.73
2019-05-12T15:09:45.109Z,45.25
2019-05-12T15:12:14.789Z,47.70
2019-05-12T15:14:44.724Z,49.15
2019-05-12T15:17:22.447Z,50.50
2019-05-12T15:19:46.443Z,46.53
2019-05-12T15:22:17.066Z,46.80
2019-05-12T15:24:49.225Z,45.52
2019-05-12T15:27:18.747Z,50.98
2019-05-12T15:29:49.878Z,51.05
2019-05-12T15:32:20.232Z,51.58
2019-05-12T15:34:49.923Z,48.42
2019-05-12T15:37:19.622Z,54.20
2019-05-12T15:39:53.481Z,53.52
2019-05-12T15:42:23.624Z,56.60
2019-05-12T15:44:53.797Z,54.30
2019-05-12T15:47:29.585Z,51.65
2019-05-12T15:49:55.488Z,56.02
2019-05-12T15:52:29.984Z,57.62
2019-05-12T15:54:57.263Z,58.68
2019-05-12T15:57:28.967Z,56.55
2019-05-12T15:59:59.286Z,62.95
2019-05-12T16:02:29.273Z,59.35
2019-05-12T16:04:59.350Z,61.60
2019-05-12T16:07:34.865Z,60.00
2019-05-12T16:10:04.059Z,61.55
2019-05-12T16:12:34.320Z,63.87
2019-05-12T16:15:11.335Z,64.53
2019-05-12T16:17:39.491Z,61.08
2019-05-12T16:20:10.331Z,64.53
2019-05-12T16:22:44.652Z,66.02
2019-05-12T16:25:14.856Z,63.50
2019-05-12T16:27:44.572Z,78.37
2019-05-12T16:30:15.258Z,76.72
2019-05-12T16:32:47.879Z,69.05
2019-05-12T16:35:20.206Z,73.62
2019-05-12T16:37:48.662Z,71.72
2019-05-12T16:40:18.785Z,71.90
2019-05-12T16:42:53.597Z,76.10
2019-05-12T16:45:23.580Z,74.10
2019-05-12T16:47:53.745Z,72.22
2019-05-12T16:50:27.173Z,75.62
2019-05-12T16:52:55.374Z,67.30
2019-05-12T16:55:25.322Z,73.65
2019-05-12T16:57:56.159Z,71.40
2019-05-12T17:00:26.361Z,73.20
2019-05-12T17:02:58.103Z,74.55
2019-05-12T17:05:28.216Z,77.10
2019-05-12T17:07:59.993Z,59.48
2019-05-12T17:10:30.054Z,66.70
2019-05-12T17:13:01.771Z,120.08
2019-05-12T17:15:33.773Z,56.80
2019-05-12T17:18:04.321Z,60.85
2019-05-12T17:20:34.583Z,60.65
2019-05-12T17:23:04.589Z,52.20
2019-05-12T17:25:34.555Z,56.50
2019-05-12T17:28:06.250Z,58.90
2019-05-12T17:30:36.264Z,59.23
2019-05-12T17:33:15.830Z,60.80
2019-05-12T17:35:39.722Z,55.00
2019-05-12T17:38:13.870Z,57.20
2019-05-12T17:40:41.453Z,47.15
2019-05-12T17:43:12.117Z,55.52
2019-05-12T17:45:44.155Z,48.85
2019-05-12T17:48:14.378Z,51.90
2019-05-12T17:50:48.586Z,48.45
2019-05-12T17:53:17.881Z,50.52
2019-05-12T17:55:50.990Z,56.77
2019-05-12T17:58:19.695Z,54.45
2019-05-12T18:00:51.869Z,50.15
2019-05-12T18:03:22.847Z,55.65
2019-05-12T18:05:54.731Z,57.17
2019-05-12T18:08:32.722Z,48.23
2019-05-12T18:10:56.396Z,52.13
2019-05-12T18:13:28.162Z,46.28
2019-05-12T18:15:58.401Z,43.00
2019-05-12T18:18:32.635Z,42.73
2019-05-12T18:21:00.132Z,42.05
2019-05-12T18:23:30.511Z,41.13
2019-05-12T18:26:03.131Z,38.35
2019-05-12T18:28:33.410Z,40.05
2019-05-12T18:31:04.485Z,40.55
2019-05-12T18:33:37.420Z,30.32
2019-05-12T18:36:07.184Z,27.60
2019-05-12T18:38:37.193Z,31.33
2019-05-12T18:41:07.333Z,31.68
2019-05-12T18:43:37.415Z,30.55
2019-05-12T18:46:09.230Z,32.00
2019-05-12T18:48:39.177Z,30.20
2019-05-12T18:51:16.776Z,31.40
2019-05-12T18:53:40.871Z,31.68
2019-05-12T18:56:19.998Z,29.42
2019-05-12T18:58:44.416Z,32.78
2019-05-12T19:01:14.508Z,32.17
2019-05-12T19:03:50.509Z,31.90
2019-05-12T19:06:16.191Z,28.00
2019-05-12T19:08:46.235Z,32.15
2019-05-12T19:11:22.467Z,31.57
2019-05-12T19:13:51.878Z,31.05
2019-05-12T19:16:19.613Z,35.70
2019-05-12T19:18:49.654Z,32.48
2019-05-12T19:21:20.230Z,35.17
2019-05-12T19:23:50.360Z,37.17
2019-05-12T19:26:20.471Z,33.58
2019-05-12T19:28:55.834Z,33.67
2019-05-12T19:31:24.600Z,32.75
2019-05-12T19:34:14.976Z,33.45
2019-05-12T19:36:25.446Z,30.32
2019-05-12T19:38:55.491Z,28.52
2019-05-12T19:41:30.800Z,27.05
2019-05-12T19:43:58.351Z,26.77
2019-05-12T19:46:28.315Z,23.27
2019-05-12T19:48:58.368Z,26.82
2019-05-12T19:51:28.520Z,22.45
2019-05-12T19:53:58.571Z,23.00
2019-05-12T19:56:34.553Z,25.37
2019-05-12T19:59:00.353Z,20.40
2019-05-12T20:01:32.681Z,21.60
2019-05-12T20:04:03.550Z,21.00
2019-05-12T20:06:33.781Z,18.42
2019-05-12T20:09:10.109Z,19.70
2019-05-12T20:11:37.522Z,19.20
2019-05-12T20:14:10.058Z,19.10
2019-05-12T20:16:39.887Z,19.67
2019-05-12T20:19:09.989Z,21.35
2019-05-12T20:21:39.952Z,17.55
2019-05-12T20:24:10.260Z,17.12
2019-05-12T20:26:40.426Z,17.87
2019-05-12T20:29:13.661Z,19.50
2019-05-12T20:31:48.075Z,19.05
2019-05-12T20:34:15.163Z,18.82
2019-05-12T20:36:45.183Z,17.57
2019-05-12T20:39:19.806Z,18.10
2019-05-12T20:41:48.952Z,17.60
2019-05-12T20:44:20.900Z,16.65
2019-05-12T20:46:56.141Z,17.73
2019-05-12T20:49:26.420Z,15.30
2019-05-12T20:52:03.612Z,18.65
2019-05-12T20:54:28.102Z,19.40
2019-05-12T20:57:02.132Z,21.37
2019-05-12T20:59:30.704Z,18.70
2019-05-12T21:02:00.741Z,18.82
2019-05-12T21:04:33.282Z,17.20
2019-05-12T21:07:04.620Z,16.25
2019-05-12T21:09:34.924Z,18.40
2019-05-12T21:12:05.042Z,16.00
2019-05-12T21:14:35.023Z,17.98
2019-05-12T21:17:09.401Z,16.48
2019-05-12T21:19:38.761Z,15.72
2019-05-12T21:22:08.430Z,14.68
2019-05-12T21:24:39.436Z,14.70
2019-05-12T21:27:14.977Z,15.63
2019-05-12T21:29:43.275Z,13.95
2019-05-12T21:32:16.623Z,19.02
2019-05-12T21:34:44.479Z,15.98
2019-05-12T21:37:14.503Z,16.82
2019-05-12T21:39:46.786Z,19.05
2019-05-12T21:42:16.239Z,18.73
2019-05-12T21:44:46.826Z,19.15
2019-05-12T21:47:17.914Z,20.43
2019-05-12T21:49:52.819Z,21.60
2019-05-12T21:52:20.495Z,22.42
2019-05-12T21:54:50.464Z,29.90
2019-05-12T21:57:27.504Z,24.30
2019-05-12T21:59:53.170Z,28.00
2019-05-12T22:02:28.916Z,29.52
2019-05-12T22:04:56.045Z,27.05
2019-05-12T22:07:29.580Z,29.23
2019-05-12T22:09:57.940Z,30.02
2019-05-12T22:12:28.547Z,26.93
2019-05-12T22:14:59.618Z,30.43
2019-05-12T22:17:33.324Z,29.42
2019-05-12T22:20:08.578Z,29.32
2019-05-12T22:22:34.678Z,33.60
2019-05-12T22:25:09.715Z,31.40
2019-05-12T22:27:39.807Z,30.08
2019-05-12T22:30:09.758Z,26.35
2019-05-12T22:32:39.687Z,28.17
2019-05-12T22:35:13.375Z,27.42
2019-05-12T22:37:41.307Z,29.07
2019-05-12T22:40:15.091Z,27.15
2019-05-12T22:42:44.496Z,24.72
2019-05-12T22:45:15.329Z,24.95
2019-05-12T22:47:49.166Z,23.12
2019-05-12T22:50:16.744Z,22.62
2019-05-12T22:52:49.378Z,24.40
2019-05-12T22:55:21.134Z,23.27
2019-05-12T22:57:50.099Z,24.30
2019-05-12T23:00:21.670Z,25.35
2019-05-12T23:02:53.567Z,21.75
2019-05-12T23:05:24.172Z,20.88
2019-05-12T23:07:54.560Z,20.62
2019-05-12T23:10:24.164Z,19.57
2019-05-12T23:12:57.027Z,19.73
2019-05-12T23:15:25.377Z,16.32
2019-05-12T23:17:55.098Z,16.82
2019-05-12T23:20:25.493Z,14.10
2019-05-12T23:22:56.615Z,18.92
2019-05-12T23:25:26.581Z,14.63
2019-05-12T23:28:00.272Z,14.13
2019-05-12T23:30:27.922Z,13.45
2019-05-12T23:32:57.967Z,14.98
2019-05-12T23:35:33.259Z,12.95
2019-05-12T23:37:59.667Z,14.28
2019-05-12T23:40:29.427Z,12.37
2019-05-12T23:42:59.084Z,13.65
2019-05-12T23:45:28.615Z,16.55
2019-05-12T23:47:58.546Z,15.08
2019-05-12T23:50:28.577Z,16.57
2019-05-12T23:52:58.319Z,16.10
2019-05-12T23:55:27.920Z,14.73
2019-05-12T23:57:57.950Z,14.23
